Vilas, South Dakota
Current Conditions -  °F | °C
As of 10:35 AM on Saturday 22 Nov 2014 (Local Time) from KMDS Reporting Station
Moderate Fog Moderate Fog  
Wind Chill: 19°   Ceiling: 200
Heat Index: 28°   Visibility: 0mi
Dew Point: 28°   Wind: 10mph
Humidity: 100%   Direction: 170°S
Pressure: 29.66"   Gusts: NA
Location:  44.0529°N, 97.5161°W
Report Text: KMDS 221635Z AUTO 17009KT M1/4SM FZFG OVC002 M02/M02 A2966 RMK AO2
Loading
Personal Weather Stations






























Interactive Weather Map New forecast layout! Learn more

10-Day Weather Forecast

Advertisements
Track Severe Weather on mobile